Airfield :
LOGIN :

Register | Disclaimer

   EN    FR    IT 

 










Legend :    VFR   Marginal VFR   IFR   Intensive IFR   Very Intensive IFR
Visi :
Ceiling :
>= 8 km
>= 3000ft
5 to 8 km
1000 to 3000 ft
1500m to 5 km
500 to 1000 ft
800 to 1500m
200 to 500 ft
< 800m
< 200 ft
Symbols :   Thunderstorms  Fog  Heavy snow  Heavy precipitations  Wind > 20 kt
SIGMETs :     Misc.  Thunderstorms  Icing  Turbulence  Mountain Waves  Volcanic Ashes






- Airport Elevation : 584 ft


LFPV - Villacoublay Vélizy

CURRENT METAR :
  • 211300Z AUTO 25008KT 220V280 9999 BKN019 BKN027 OVC032 13/10 Q1019 NOSIG

EXPIRED METARs :
  • 211230Z AUTO 26008KT 220V300 9999 OVC023 13/10 Q1019 NOSIG
  • 211200Z AUTO 26007KT 220V300 9999 BKN018 OVC024 13/09 Q1019 NOSIG
  • 211130Z AUTO 24009KT 9999 BKN015 OVC020 12/09 Q1018 NOSIG
  • 211100Z AUTO 24008KT 210V280 9999 BKN013 BKN028 12/10 Q1018 BECMG SCT035
  • 211030Z AUTO 24008KT 210V270 9999 OVC010 11/10 Q1018 BECMG SCT035

TAF TAF LFPV
Valid from the 21 at 09:00 until the 22 at 09:00 UTC


210800Z 2109/2209 23010KT 9999 OVC008
TEMPO 2109/2112 23010G20KT
BECMG 2109/2110 BKN012
BECMG 2111/2113 SCT035
BECMG 2203/2205 0400 FG



MET'MAP, your aeronautical weather chart ! - Copyright ORBIFLY December 2007 - Disclaimer

ORBIFLY MET'MAP TEAM :

Programming & Development : Alexandra Zaïnal
Concept & Development : Baudouin d'Aumeries
Co-Development & Prog : Marc-Olivier Méhu
Technical & hardware support : Manuel Goepfert

Contact : metmap@orbifly.com




SOURCES & CREDITS :

   NOAA